Time;durP1;ratioP1;P1;durP2;ratioP2;P2;SDS_P1;SDS_P2;PMS_P1;PMS_P2;Temp;Humidity;BMP_temperature;BMP_pressure;BME280_temperature;BME280_humidity;BME280_pressure;Samples;Min_cycle;Max_cycle;Signal;HPM_P1;HPM_P2
2021/07/06 00:00:12;;;;;;;7.10;3.05;;;;;;;13.89;100.00;95667.81;1036502;28;20491;-49
2021/07/06 00:00:43;;;;;;;5.95;3.15;;;;;;;13.90;100.00;95671.25;1036307;28;20014;-50
2021/07/06 00:01:13;;;;;;;7.47;3.50;;;;;;;13.85;100.00;95669.03;1036295;28;20029;-49
2021/07/06 00:01:44;;;;;;;5.18;3.55;;;;;;;13.85;100.00;95665.56;1036516;28;20014;-50
2021/07/06 00:02:15;;;;;;;7.20;3.30;;;;;;;13.86;100.00;95675.13;1036381;28;20018;-49
2021/07/06 00:02:49;;;;;;;8.48;3.47;;;;;;;13.87;100.00;95671.53;1036320;28;20021;-50
2021/07/06 00:03:19;;;;;;;5.30;3.10;;;;;;;13.89;100.00;95674.84;1036372;28;20014;-50
2021/07/06 00:03:50;;;;;;;7.03;3.20;;;;;;;13.92;100.00;95671.97;1035892;28;20049;-51
2021/07/06 00:04:22;;;;;;;6.63;3.35;;;;;;;13.96;100.00;95675.97;1036457;28;20010;-48
2021/07/06 00:04:59;;;;;;;7.13;3.25;;;;;;;13.94;100.00;95673.47;1036376;28;20017;-51
2021/07/06 00:05:31;;;;;;;7.13;2.92;;;;;;;13.94;100.00;95672.66;1036400;28;20033;-50
2021/07/06 00:06:02;;;;;;;8.25;2.90;;;;;;;13.92;100.00;95674.59;1036496;28;20511;-51
2021/07/06 00:06:32;;;;;;;7.18;3.33;;;;;;;13.91;100.00;95665.03;1036387;28;20097;-51
2021/07/06 00:07:04;;;;;;;5.93;3.03;;;;;;;13.97;100.00;95667.13;1036324;28;20387;-50
2021/07/06 00:07:34;;;;;;;6.90;2.75;;;;;;;13.97;100.00;95662.69;1036570;28;20021;-50
2021/07/06 00:08:05;;;;;;;6.07;2.78;;;;;;;13.91;100.00;95665.88;1036445;28;20014;-50
2021/07/06 00:08:36;;;;;;;7.47;3.25;;;;;;;13.92;100.00;95664.88;1036387;28;20025;-50
2021/07/06 00:09:06;;;;;;;5.85;2.85;;;;;;;13.85;100.00;95655.03;1036325;28;20016;-50
2021/07/06 00:09:37;;;;;;;5.82;3.10;;;;;;;13.89;100.00;95666.94;1036398;28;20042;-50
2021/07/06 00:10:09;;;;;;;5.40;2.60;;;;;;;13.93;100.00;95661.28;1036454;28;20101;-50
2021/07/06 00:10:39;;;;;;;5.53;2.90;;;;;;;13.92;100.00;95666.69;1036419;28;20521;-50
2021/07/06 00:11:10;;;;;;;5.15;2.90;;;;;;;13.95;100.00;95655.88;1036242;28;20014;-49
2021/07/06 00:11:41;;;;;;;5.75;2.92;;;;;;;13.96;100.00;95662.81;1036478;28;20021;-50
2021/07/06 00:12:11;;;;;;;8.40;3.15;;;;;;;13.92;100.00;95662.25;1036504;28;20018;-50
2021/07/06 00:12:42;;;;;;;6.90;2.88;;;;;;;13.89;100.00;95664.31;1036405;28;20384;-49
2021/07/06 00:13:13;;;;;;;5.10;2.90;;;;;;;13.88;100.00;95660.84;1036285;28;20022;-51
2021/07/06 00:13:44;;;;;;;5.28;3.03;;;;;;;13.88;100.00;95660.03;1035705;28;20033;-48
2021/07/06 00:14:14;;;;;;;5.97;3.00;;;;;;;13.86;100.00;95662.78;1036539;28;20014;-51
2021/07/06 00:14:45;;;;;;;5.18;2.70;;;;;;;13.85;100.00;95668.19;1036411;28;20013;-49
2021/07/06 00:15:16;;;;;;;6.10;2.70;;;;;;;13.80;100.00;95655.44;1036265;28;20036;-51
2021/07/06 00:15:48;;;;;;;5.95;3.00;;;;;;;13.81;100.00;95665.00;1036513;28;20412;-50
2021/07/06 00:16:19;;;;;;;4.60;2.80;;;;;;;13.85;100.00;95660.28;1036414;28;20022;-50
2021/07/06 00:16:50;;;;;;;7.90;3.08;;;;;;;13.88;100.00;95663.50;1036417;28;20021;-50
2021/07/06 00:17:20;;;;;;;5.13;2.90;;;;;;;13.91;100.00;95662.41;1036340;28;20532;-51
2021/07/06 00:17:53;;;;;;;5.18;2.63;;;;;;;13.86;100.00;95657.53;1036399;28;20018;-49
2021/07/06 00:18:24;;;;;;;8.13;2.92;;;;;;;13.82;100.00;95661.41;1036349;28;20014;-50
2021/07/06 00:18:54;;;;;;;6.03;3.03;;;;;;;13.84;100.00;95661.28;1036366;28;20025;-51
2021/07/06 00:19:25;;;;;;;6.00;2.95;;;;;;;13.82;100.00;95656.13;1036285;28;20061;-51
2021/07/06 00:19:55;;;;;;;5.68;2.70;;;;;;;13.82;100.00;95653.50;1036454;28;20029;-50
2021/07/06 00:20:27;;;;;;;6.70;3.10;;;;;;;13.79;100.00;95657.25;1036363;28;20024;-50
2021/07/06 00:21:00;;;;;;;4.28;2.72;;;;;;;13.81;100.00;95651.81;1036329;28;20029;-51
2021/07/06 00:21:31;;;;;;;4.80;2.40;;;;;;;13.79;100.00;95651.97;1036140;28;20018;-48
2021/07/06 00:22:02;;;;;;;5.70;3.10;;;;;;;13.74;100.00;95653.31;1036404;28;20045;-50
2021/07/06 00:22:33;;;;;;;6.70;2.92;;;;;;;13.76;100.00;95654.88;1031884;28;20137;-50
2021/07/06 00:23:04;;;;;;;7.32;3.08;;;;;;;13.77;100.00;95655.69;1032020;28;20096;-50
2021/07/06 00:23:35;;;;;;;3.75;2.88;;;;;;;13.79;100.00;95654.63;1031467;28;20041;-51
2021/07/06 00:24:06;;;;;;;7.55;2.88;;;;;;;13.75;100.00;95653.19;1032128;28;20065;-51
2021/07/06 00:24:36;;;;;;;6.00;3.20;;;;;;;13.73;100.00;95651.69;1036314;28;20018;-49
2021/07/06 00:25:08;;;;;;;4.15;2.63;;;;;;;13.77;100.00;95661.78;1036329;28;20014;-51
2021/07/06 00:25:39;;;;;;;4.93;2.78;;;;;;;13.73;100.00;95660.41;1036280;28;20029;-49
2021/07/06 00:26:10;;;;;;;7.03;2.90;;;;;;;13.79;100.00;95656.41;1036452;28;20072;-50
2021/07/06 00:26:40;;;;;;;6.88;3.10;;;;;;;13.84;100.00;95656.00;1036310;28;20144;-49
2021/07/06 00:27:12;;;;;;;7.63;2.83;;;;;;;13.82;100.00;95650.88;1036400;28;20546;-50
2021/07/06 00:27:42;;;;;;;8.45;2.78;;;;;;;13.80;100.00;95653.63;1035997;28;20451;-50
2021/07/06 00:28:13;;;;;;;6.35;2.90;;;;;;;13.79;100.00;95651.97;1036401;28;20026;-50
2021/07/06 00:28:44;;;;;;;7.85;3.05;;;;;;;13.79;100.00;95651.97;1036300;28;20014;-50
2021/07/06 00:29:15;;;;;;;6.53;2.90;;;;;;;13.85;100.00;95660.28;1036392;28;20091;-51
2021/07/06 00:29:46;;;;;;;6.15;2.60;;;;;;;13.86;100.00;95654.06;1036288;28;20527;-50
2021/07/06 00:30:17;;;;;;;5.15;2.53;;;;;;;13.85;100.00;95650.63;1036440;28;20021;-50
2021/07/06 00:30:48;;;;;;;6.18;2.88;;;;;;;13.84;100.00;95653.38;1036269;28;20025;-50
2021/07/06 00:31:19;;;;;;;6.40;3.42;;;;;;;13.80;100.00;95653.63;1036280;28;20097;-49
2021/07/06 00:31:49;;;;;;;5.05;3.08;;;;;;;13.76;100.00;95652.25;1036362;28;20017;-50
2021/07/06 00:32:20;;;;;;;5.60;3.00;;;;;;;13.79;100.00;95653.75;1036143;28;20068;-50
2021/07/06 00:32:51;;;;;;;6.03;2.90;;;;;;;13.80;100.00;95653.63;1036215;28;20022;-48
2021/07/06 00:33:22;;;;;;;5.60;2.78;;;;;;;13.76;100.00;95651.41;1036340;28;20014;-50
2021/07/06 00:33:53;;;;;;;6.70;2.78;;;;;;;13.78;100.00;95652.13;1035566;28;20022;-49
2021/07/06 00:34:23;;;;;;;5.60;2.70;;;;;;;13.78;100.00;95655.56;1036211;28;20028;-49
2021/07/06 00:34:54;;;;;;;5.45;2.55;;;;;;;13.67;100.00;95639.06;1036305;28;20025;-50
2021/07/06 00:35:25;;;;;;;4.53;2.85;;;;;;;13.76;100.00;95656.69;1036434;28;20714;-49
2021/07/06 00:35:59;;;;;;;7.53;3.15;;;;;;;13.80;100.00;95660.72;1035947;28;20018;-50
2021/07/06 00:36:29;;;;;;;6.80;2.70;;;;;;;13.79;100.00;95653.75;1036193;28;20022;-51
2021/07/06 00:37:00;;;;;;;7.68;3.15;;;;;;;13.76;100.00;95657.50;1036303;28;20021;-50
2021/07/06 00:37:31;;;;;;;7.57;2.60;;;;;;;13.73;100.00;95655.13;1036318;28;20100;-50
2021/07/06 00:38:02;;;;;;;6.68;3.03;;;;;;;13.73;100.00;95656.94;1036304;28;20116;-50
2021/07/06 00:38:32;;;;;;;7.50;2.78;;;;;;;13.71;100.00;95650.97;1036142;28;20037;-50
2021/07/06 00:39:04;;;;;;;5.38;2.60;;;;;;;13.70;100.00;95649.31;1036280;28;20024;-50
2021/07/06 00:39:35;;;;;;;6.97;2.70;;;;;;;13.69;100.00;95650.28;1036434;28;20018;-49
2021/07/06 00:40:06;;;;;;;6.85;3.00;;;;;;;13.67;100.00;95649.59;1036338;28;20017;-51
2021/07/06 00:40:38;;;;;;;9.57;3.38;;;;;;;13.65;100.00;95649.72;1036159;28;20092;-50
2021/07/06 00:41:08;;;;;;;5.22;3.00;;;;;;;13.61;100.00;95649.16;1036125;28;20030;-50
2021/07/06 00:41:40;;;;;;;6.97;3.20;;;;;;;13.60;100.00;95649.28;1036376;28;20026;-49
2021/07/06 00:42:10;;;;;;;5.68;2.60;;;;;;;13.59;100.00;95653.72;1036212;28;20026;-50
2021/07/06 00:42:42;;;;;;;7.82;3.10;;;;;;;13.57;100.00;95650.38;1036120;28;20049;-49
2021/07/06 00:43:13;;;;;;;4.13;2.90;;;;;;;13.55;100.00;95648.84;1036261;28;20538;-50
2021/07/06 00:43:43;;;;;;;12.43;2.90;;;;;;;13.54;100.00;95649.81;1035630;28;20025;-49
2021/07/06 00:44:21;;;;;;;4.68;2.85;;;;;;;13.54;100.00;95647.19;1036380;28;20112;-50
2021/07/06 00:44:53;;;;;;;5.28;2.70;;;;;;;13.53;100.00;95649.00;1036277;28;20654;-49
2021/07/06 00:45:24;;;;;;;5.22;2.72;;;;;;;13.49;100.00;95646.75;1036373;28;20455;-52
2021/07/06 00:45:56;;;;;;;6.25;2.85;;;;;;;13.50;100.00;95640.53;1036286;28;20050;-49
2021/07/06 00:46:27;;;;;;;6.28;2.80;;;;;;;13.48;100.00;95647.72;1036264;28;20106;-50
2021/07/06 00:46:57;;;;;;;4.65;3.05;;;;;;;13.52;100.00;95643.88;1036284;28;20572;-49
2021/07/06 00:47:31;;;;;;;6.32;2.88;;;;;;;13.52;100.00;95643.88;1036375;28;20052;-50
2021/07/06 00:48:02;;;;;;;3.63;2.55;;;;;;;13.51;100.00;95636.91;1036342;28;20018;-50
2021/07/06 00:48:33;;;;;;;8.38;3.20;;;;;;;13.49;100.00;95644.13;1036173;28;20014;-50
2021/07/06 00:49:03;;;;;;;4.18;3.00;;;;;;;13.49;100.00;95650.22;1036269;28;20483;-50
2021/07/06 00:49:34;;;;;;;5.43;3.47;;;;;;;13.50;100.00;95645.78;1036308;28;20026;-51
2021/07/06 00:50:10;;;;;;;4.70;2.80;;;;;;;13.49;100.00;95642.31;1036387;28;20029;-50
2021/07/06 00:50:41;;;;;;;4.95;2.67;;;;;;;13.49;100.00;95642.31;1036111;28;20383;-49
2021/07/06 00:51:12;;;;;;;3.95;2.50;;;;;;;13.48;100.00;95640.66;1036193;28;20018;-50
2021/07/06 00:51:43;;;;;;;5.00;2.65;;;;;;;13.47;100.00;95636.34;1036239;28;20017;-51
2021/07/06 00:52:13;;;;;;;5.85;2.50;;;;;;;13.45;100.00;95643.56;1036305;28;20105;-50
2021/07/06 00:52:44;;;;;;;4.78;2.63;;;;;;;13.45;100.00;95640.09;1036043;28;20125;-50
2021/07/06 00:53:15;;;;;;;5.05;2.97;;;;;;;13.44;100.00;95635.78;1036220;28;20021;-50
2021/07/06 00:53:45;;;;;;;9.77;2.75;;;;;;;13.50;100.00;95636.09;1035643;28;20076;-49
2021/07/06 00:54:17;;;;;;;5.00;2.85;;;;;;;13.52;100.00;95634.16;1036346;28;20021;-51
2021/07/06 00:54:47;;;;;;;5.45;2.83;;;;;;;13.53;100.00;95637.63;1036107;28;20550;-50
2021/07/06 00:55:18;;;;;;;5.70;2.75;;;;;;;13.50;100.00;95633.47;1036138;28;20021;-51
2021/07/06 00:55:51;;;;;;;5.20;2.53;;;;;;;13.52;100.00;95635.97;1036292;28;20041;-50
2021/07/06 00:56:21;;;;;;;4.85;2.42;;;;;;;13.54;100.00;95631.41;1036320;28;20041;-49
2021/07/06 00:56:53;;;;;;;6.38;2.47;;;;;;;13.53;100.00;95629.72;1036007;28;20480;-49
2021/07/06 00:57:31;;;;;;;7.53;3.17;;;;;;;13.52;100.00;95636.78;1036209;28;20057;-51
2021/07/06 00:58:02;;;;;;;6.95;2.65;;;;;;;13.53;100.00;95630.56;1036356;28;20714;-50
2021/07/06 00:58:33;;;;;;;6.00;2.90;;;;;;;13.49;100.00;95631.78;1036288;28;20036;-50
2021/07/06 00:59:03;;;;;;;4.32;2.95;;;;;;;13.49;100.00;95633.59;1035969;28;20026;-50
2021/07/06 00:59:34;;;;;;;4.57;2.70;;;;;;;13.50;100.00;95632.63;1036289;28;20013;-49
2021/07/06 01:00:14;;;;;;;3.90;2.80;;;;;;;13.51;100.00;95621.13;1036323;28;20409;-50
2021/07/06 01:00:45;;;;;;;4.05;2.60;;;;;;;13.51;100.00;95634.28;1036202;28;20006;-51
2021/07/06 01:01:16;;;;;;;4.18;2.78;;;;;;;13.50;100.00;95630.00;1035847;28;20025;-50
2021/07/06 01:01:48;;;;;;;10.15;2.80;;;;;;;13.50;100.00;95628.19;1036289;28;20041;-51
2021/07/06 01:02:19;;;;;;;8.52;3.38;;;;;;;13.48;100.00;95627.50;1036188;28;20101;-51
2021/07/06 01:02:50;;;;;;;5.55;2.80;;;;;;;13.45;100.00;95627.75;1036105;28;20026;-50
2021/07/06 01:03:22;;;;;;;3.95;2.67;;;;;;;13.45;100.00;95627.75;1036104;28;20029;-50
2021/07/06 01:03:53;;;;;;;5.20;2.78;;;;;;;13.45;100.00;95624.31;1035590;28;20380;-49
2021/07/06 01:04:23;;;;;;;6.53;2.65;;;;;;;13.45;100.00;95626.94;1036304;28;20022;-50
2021/07/06 01:04:54;;;;;;;5.90;2.28;;;;;;;13.46;100.00;95626.81;1036227;28;20022;-49
2021/07/06 01:05:25;;;;;;;5.30;3.13;;;;;;;13.44;100.00;95628.75;1036127;28;20026;-49
2021/07/06 01:05:56;;;;;;;4.10;2.90;;;;;;;13.47;100.00;95625.00;1036276;28;20033;-50
2021/07/06 01:06:27;;;;;;;7.50;3.03;;;;;;;13.48;100.00;95629.31;1036315;28;20018;-51
2021/07/06 01:06:57;;;;;;;6.07;3.00;;;;;;;13.48;100.00;95624.88;1036136;28;20029;-48
2021/07/06 01:07:28;;;;;;;4.72;2.78;;;;;;;13.49;100.00;95626.53;1036151;28;20026;-50
2021/07/06 01:07:59;;;;;;;5.32;3.05;;;;;;;13.48;100.00;95624.88;1036247;28;20014;-51
2021/07/06 01:08:29;;;;;;;5.10;2.50;;;;;;;13.51;100.00;95615.84;1036283;28;20022;-51
2021/07/06 01:09:00;;;;;;;5.78;3.05;;;;;;;13.49;100.00;95613.34;1036178;28;20443;-50
2021/07/06 01:09:31;;;;;;;5.53;2.45;;;;;;;13.48;100.00;95622.25;1035952;28;20038;-49
2021/07/06 01:10:03;;;;;;;6.35;2.72;;;;;;;13.50;100.00;95619.47;1036150;28;20148;-51
2021/07/06 01:10:35;;;;;;;5.05;3.05;;;;;;;13.51;100.00;95618.50;1035938;28;20103;-50
2021/07/06 01:11:06;;;;;;;8.75;2.90;;;;;;;13.55;100.00;95615.47;1035699;28;20018;-49
2021/07/06 01:11:36;;;;;;;7.38;2.78;;;;;;;13.59;100.00;95610.78;1035822;28;20072;-50
2021/07/06 01:12:07;;;;;;;5.22;2.90;;;;;;;13.57;100.00;95615.31;1035865;28;20159;-51
2021/07/06 01:12:38;;;;;;;4.28;2.65;;;;;;;13.60;100.00;95615.06;1036216;28;20026;-50
2021/07/06 01:13:09;;;;;;;6.63;2.47;;;;;;;13.57;100.00;95613.53;1036027;28;20048;-47
2021/07/06 01:13:39;;;;;;;5.10;2.95;;;;;;;13.57;100.00;95617.94;1035413;28;20097;-50
2021/07/06 01:14:10;;;;;;;8.38;3.05;;;;;;;13.54;100.00;95613.78;1036263;28;20396;-49
2021/07/06 01:14:41;;;;;;;5.40;2.63;;;;;;;13.54;100.00;95607.72;1036217;28;20060;-48
2021/07/06 01:15:14;;;;;;;4.85;2.50;;;;;;;13.51;100.00;95610.59;1036155;28;20014;-50
2021/07/06 01:15:44;;;;;;;4.72;2.55;;;;;;;13.52;100.00;95607.84;1036089;28;20145;-51
2021/07/06 01:16:15;;;;;;;5.47;2.35;;;;;;;13.50;100.00;95606.31;1036339;28;20439;-50
2021/07/06 01:16:46;;;;;;;4.18;2.78;;;;;;;13.48;100.00;95605.63;1036176;28;20048;-51
2021/07/06 01:17:25;;;;;;;4.22;2.55;;;;;;;13.48;100.00;95603.81;1036169;28;20376;-50
2021/07/06 01:18:01;;;;;;;4.15;2.70;;;;;;;13.50;100.00;95607.13;1036123;28;20468;-49
2021/07/06 01:18:32;;;;;;;6.05;2.70;;;;;;;13.49;100.00;95600.19;1036250;28;20464;-49
2021/07/06 01:19:03;;;;;;;5.43;2.63;;;;;;;13.49;100.00;95604.63;1036021;28;20044;-49
2021/07/06 01:19:36;;;;;;;6.63;2.50;;;;;;;13.50;100.00;95599.25;1036197;28;20068;-50
2021/07/06 01:20:09;;;;;;;5.25;2.40;;;;;;;13.50;100.00;95601.06;1036033;28;20037;-50
2021/07/06 01:20:49;;;;;;;5.80;2.78;;;;;;;13.47;100.00;95603.94;1036154;28;20050;-51
2021/07/06 01:21:19;;;;;;;8.27;2.90;;;;;;;13.48;100.00;95600.34;1036065;28;20369;-50
2021/07/06 01:21:50;;;;;;;5.13;2.45;;;;;;;13.50;100.00;95591.34;1036152;28;20064;-50
2021/07/06 01:22:28;;;;;;;4.78;2.83;;;;;;;13.57;100.00;95596.88;1036130;28;20045;-49
2021/07/06 01:22:59;;;;;;;5.47;2.70;;;;;;;13.56;100.00;95596.06;1036187;28;20028;-50
2021/07/06 01:23:31;;;;;;;4.38;2.55;;;;;;;13.52;100.00;95596.47;1035811;28;20532;-50
2021/07/06 01:24:02;;;;;;;3.95;2.50;;;;;;;13.50;100.00;95593.16;1035901;28;20472;-50
2021/07/06 01:24:40;;;;;;;4.03;2.67;;;;;;;13.51;100.00;95590.38;1036239;28;20101;-50
2021/07/06 01:25:11;;;;;;;5.22;3.05;;;;;;;13.49;100.00;95596.75;1036113;28;20105;-50
2021/07/06 01:25:43;;;;;;;5.72;2.90;;;;;;;13.47;100.00;95591.59;1036159;28;20025;-50
2021/07/06 01:26:13;;;;;;;5.47;2.50;;;;;;;13.50;100.00;95591.34;1036070;28;20033;-50
2021/07/06 01:26:44;;;;;;;6.85;2.63;;;;;;;13.46;100.00;95597.00;1036088;28;20045;-52
2021/07/06 01:27:14;;;;;;;5.22;2.90;;;;;;;13.46;100.00;95597.00;1036088;28;20104;-49
2021/07/06 01:27:45;;;;;;;5.90;2.90;;;;;;;13.44;100.00;95588.41;1036188;28;20060;-50
2021/07/06 01:28:16;;;;;;;7.32;2.78;;;;;;;13.41;100.00;95592.97;1036043;28;20018;-51
2021/07/06 01:28:47;;;;;;;5.32;2.55;;;;;;;13.41;100.00;95590.34;1036135;28;20426;-50
2021/07/06 01:29:17;;;;;;;6.20;3.03;;;;;;;13.39;100.00;95594.91;1036077;28;20317;-50
2021/07/06 01:29:48;;;;;;;6.88;2.70;;;;;;;13.38;100.00;95593.25;1036177;28;20018;-51
2021/07/06 01:30:19;;;;;;;4.20;2.63;;;;;;;13.37;100.00;95590.75;1036021;28;20050;-50
2021/07/06 01:30:50;;;;;;;3.72;2.72;;;;;;;13.34;100.00;95583.13;1036145;28;20057;-50
2021/07/06 01:31:20;;;;;;;5.43;2.90;;;;;;;13.31;100.00;95592.13;1036098;28;20018;-50
2021/07/06 01:31:51;;;;;;;5.53;2.85;;;;;;;13.30;100.00;95595.72;1036206;28;20022;-49
2021/07/06 01:32:22;;;;;;;4.47;3.05;;;;;;;13.30;100.00;95592.22;1036007;28;20014;-49
2021/07/06 01:32:53;;;;;;;7.13;3.05;;;;;;;13.28;100.00;95584.47;1036073;28;20030;-50
2021/07/06 01:33:26;;;;;;;9.50;3.05;;;;;;;13.28;100.00;95588.91;1035962;28;20021;-53
2021/07/06 01:33:56;;;;;;;5.45;2.83;;;;;;;13.30;100.00;95584.34;1035769;28;20401;-50
2021/07/06 01:34:27;;;;;;;5.05;2.78;;;;;;;13.27;100.00;95577.56;1036087;28;20814;-50
2021/07/06 01:34:58;;;;;;;5.13;2.42;;;;;;;13.29;100.00;95583.50;1036047;28;20419;-50
2021/07/06 01:35:29;;;;;;;4.90;2.70;;;;;;;13.30;100.00;95579.94;1035846;28;20025;-52
2021/07/06 01:36:03;;;;;;;4.00;2.80;;;;;;;13.30;100.00;95573.81;1035890;28;20510;-50
2021/07/06 01:36:34;;;;;;;4.72;2.80;;;;;;;13.28;100.00;95568.66;1036043;28;20018;-49
2021/07/06 01:37:04;;;;;;;4.82;2.33;;;;;;;13.31;100.00;95578.16;1036277;28;20034;-51
2021/07/06 01:37:35;;;;;;;4.63;2.53;;;;;;;13.34;100.00;95567.34;1036143;28;20041;-49
2021/07/06 01:38:06;;;;;;;5.22;2.65;;;;;;;13.33;100.00;95571.78;1035816;28;20084;-50
2021/07/06 01:38:36;;;;;;;5.22;2.58;;;;;;;13.32;100.00;95572.72;1035790;28;20024;-50
2021/07/06 01:39:08;;;;;;;4.35;2.80;;;;;;;13.33;100.00;95571.78;1035254;28;20018;-50
2021/07/06 01:39:38;;;;;;;5.53;2.78;;;;;;;13.34;100.00;95569.97;1035640;28;20071;-51
2021/07/06 01:40:09;;;;;;;7.03;2.60;;;;;;;13.34;100.00;95575.22;1036018;28;20458;-49
2021/07/06 01:40:40;;;;;;;4.15;2.42;;;;;;;13.29;100.00;95565.09;1036010;28;20052;-49
2021/07/06 01:41:11;;;;;;;5.05;2.60;;;;;;;13.32;100.00;95570.09;1035811;28;20016;-51
2021/07/06 01:41:42;;;;;;;5.13;2.15;;;;;;;13.34;100.00;95569.97;1036210;28;20018;-49
2021/07/06 01:42:21;;;;;;;3.72;2.40;;;;;;;13.33;100.00;95571.78;1036181;28;20430;-51
2021/07/06 01:42:51;;;;;;;5.65;2.60;;;;;;;13.33;100.00;95566.50;1035941;28;20017;-49
2021/07/06 01:43:22;;;;;;;5.20;2.75;;;;;;;13.33;100.00;95563.88;1035995;28;20029;-50
2021/07/06 01:43:53;;;;;;;5.05;2.60;;;;;;;13.32;100.00;95570.09;1035550;28;20502;-51
2021/07/06 01:44:25;;;;;;;5.60;2.50;;;;;;;13.29;100.00;95566.88;1036130;28;20010;-50
2021/07/06 01:45:08;;;;;;;3.88;2.70;;;;;;;13.29;100.00;95575.63;1036051;28;20392;-50
2021/07/06 01:45:39;;;;;;;3.72;2.33;;;;;;;13.30;100.00;95571.19;1036089;28;20087;-52
2021/07/06 01:46:09;;;;;;;4.57;2.63;;;;;;;13.29;100.00;95570.34;1036126;28;20014;-49
2021/07/06 01:46:40;;;;;;;4.88;2.80;;;;;;;13.21;100.00;95575.44;1036042;28;20022;-50
2021/07/06 01:47:11;;;;;;;4.70;2.92;;;;;;;13.19;100.00;95580.00;1035846;28;20022;-52
2021/07/06 01:47:43;;;;;;;4.43;2.88;;;;;;;13.16;100.00;95575.03;1036032;28;20097;-50
2021/07/06 01:48:14;;;;;;;4.32;2.90;;;;;;;13.16;100.00;95570.59;1036159;28;20072;-50
2021/07/06 01:48:45;;;;;;;6.90;3.53;;;;;;;13.18;100.00;95573.09;1036110;28;20487;-51
2021/07/06 01:49:15;;;;;;;6.10;3.17;;;;;;;13.16;100.00;95575.84;1035834;28;20109;-50
2021/07/06 01:49:46;;;;;;;4.75;2.90;;;;;;;13.17;100.00;95571.41;1036111;28;20017;-50
2021/07/06 01:50:26;;;;;;;4.80;2.95;;;;;;;13.18;100.00;95580.97;1036141;28;20014;-52
2021/07/06 01:50:58;;;;;;;8.43;3.47;;;;;;;13.15;100.00;95575.97;1036001;28;20029;-49
2021/07/06 01:51:28;;;;;;;4.60;3.45;;;;;;;13.15;100.00;95575.97;1035844;28;20048;-49
2021/07/06 01:52:00;;;;;;;6.70;2.83;;;;;;;13.15;100.00;95576.78;1036010;28;20464;-51
2021/07/06 01:52:30;;;;;;;3.85;2.80;;;;;;;13.16;100.00;95572.38;1036042;28;20091;-49
2021/07/06 01:53:03;;;;;;;4.65;2.88;;;;;;;13.16;100.00;95575.03;1035966;28;20022;-51
2021/07/06 01:53:34;;;;;;;5.43;2.80;;;;;;;13.17;100.00;95571.41;1035439;28;20093;-49
2021/07/06 01:54:05;;;;;;;4.93;2.90;;;;;;;13.15;100.00;95578.59;1035897;28;20024;-50
2021/07/06 01:54:37;;;;;;;7.35;2.90;;;;;;;13.18;100.00;95575.72;1036063;28;20547;-49
2021/07/06 01:55:10;;;;;;;6.88;2.72;;;;;;;13.19;100.00;95577.38;1035937;28;20471;-49
2021/07/06 01:55:43;;;;;;;4.25;3.00;;;;;;;13.20;100.00;95584.31;1035968;28;20014;-49
2021/07/06 01:56:14;;;;;;;4.35;2.75;;;;;;;13.19;100.00;95574.72;1036111;28;20022;-50
2021/07/06 01:56:46;;;;;;;4.85;3.35;;;;;;;13.17;100.00;95571.41;1036050;28;20361;-50
2021/07/06 01:57:16;;;;;;;4.63;2.75;;;;;;;13.17;100.00;95574.84;1035817;28;20713;-50
2021/07/06 01:57:48;;;;;;;5.88;3.15;;;;;;;13.15;100.00;95568.91;1036126;28;20018;-51
2021/07/06 01:58:20;;;;;;;4.35;2.85;;;;;;;13.07;100.00;95558.22;1036161;28;20021;-49
2021/07/06 01:58:50;;;;;;;3.70;2.50;;;;;;;13.17;100.00;95571.41;1036242;28;20092;-50
2021/07/06 01:59:21;;;;;;;4.53;2.47;;;;;;;13.21;100.00;95570.16;1036953;28;20038;-49
2021/07/06 01:59:51;;;;;;;4.90;2.72;;;;;;;13.18;100.00;95567.81;1036153;28;20076;-49
2021/07/06 02:00:28;;;;;;;3.65;2.78;;;;;;;13.18;100.00;95565.19;1036043;28;20013;-50
2021/07/06 02:00:59;;;;;;;4.25;2.90;;;;;;;13.16;100.00;95569.75;1036051;28;20030;-50
2021/07/06 02:01:30;;;;;;;5.78;2.53;;;;;;;13.16;100.00;95567.94;1035580;28;20144;-50
2021/07/06 02:02:01;;;;;;;4.65;2.67;;;;;;;13.13;100.00;95568.19;1036101;28;20614;-50
2021/07/06 02:02:31;;;;;;;4.55;2.40;;;;;;;13.15;100.00;95568.06;1036068;28;20030;-51
2021/07/06 02:03:03;;;;;;;4.15;2.38;;;;;;;13.14;100.00;95569.06;1035980;28;20018;-49
2021/07/06 02:03:33;;;;;;;4.32;2.40;;;;;;;13.15;100.00;95562.81;1035398;28;20105;-51
2021/07/06 02:04:05;;;;;;;5.07;2.40;;;;;;;13.14;100.00;95562.00;1035819;28;20407;-49
2021/07/06 02:04:35;;;;;;;4.82;2.80;;;;;;;13.10;100.00;95563.22;1036110;28;20771;-50
2021/07/06 02:05:17;;;;;;;3.78;2.28;;;;;;;13.08;100.00;95562.50;1036059;28;20101;-50
2021/07/06 02:05:49;;;;;;;4.07;2.33;;;;;;;13.10;100.00;95565.88;1035925;28;20365;-50
2021/07/06 02:06:20;;;;;;;3.95;2.40;;;;;;;13.09;100.00;95561.56;1036142;28;20024;-50
2021/07/06 02:06:51;;;;;;;3.90;2.80;;;;;;;13.07;100.00;95558.22;1036092;28;20518;-48
2021/07/06 02:07:21;;;;;;;4.80;2.92;;;;;;;13.08;100.00;95556.41;1035916;28;20504;-51
2021/07/06 02:07:52;;;;;;;5.35;2.80;;;;;;;13.09;100.00;95561.56;1035935;28;20056;-50
2021/07/06 02:08:23;;;;;;;4.28;2.47;;;;;;;13.06;100.00;95556.53;1035996;28;20053;-50
2021/07/06 02:08:54;;;;;;;4.93;2.80;;;;;;;13.02;100.00;95558.59;1036170;28;20030;-50
2021/07/06 02:09:25;;;;;;;4.78;2.60;;;;;;;13.05;100.00;95561.97;1035789;28;20022;-50
2021/07/06 02:09:55;;;;;;;6.40;2.72;;;;;;;13.00;100.00;95557.91;1035873;28;20053;-50
2021/07/06 02:10:27;;;;;;;5.22;2.75;;;;;;;12.96;100.00;95553.88;1036082;28;20025;-51
2021/07/06 02:10:59;;;;;;;5.15;2.53;;;;;;;13.01;100.00;95559.59;1036079;28;20044;-50
2021/07/06 02:11:29;;;;;;;6.20;2.92;;;;;;;13.01;100.00;95556.13;1035854;28;20100;-50
2021/07/06 02:12:01;;;;;;;4.50;2.40;;;;;;;13.03;100.00;95555.03;1035905;28;20026;-50
2021/07/06 02:12:32;;;;;;;4.78;2.97;;;;;;;13.03;100.00;95555.03;1035982;28;20025;-50
2021/07/06 02:13:03;;;;;;;4.13;2.50;;;;;;;13.01;100.00;95556.97;1036075;28;20017;-50
2021/07/06 02:13:33;;;;;;;4.57;2.85;;;;;;;13.01;100.00;95551.69;1035406;28;20022;-50
2021/07/06 02:14:04;;;;;;;5.07;2.80;;;;;;;13.01;100.00;95550.88;1035734;28;20046;-51
2021/07/06 02:14:35;;;;;;;4.22;2.58;;;;;;;13.01;100.00;95554.31;1036073;28;20026;-50
2021/07/06 02:15:07;;;;;;;3.95;2.35;;;;;;;13.01;100.00;95556.97;1035990;28;20047;-50
2021/07/06 02:15:38;;;;;;;4.35;2.70;;;;;;;12.99;100.00;95544.91;1036011;28;20036;-50
2021/07/06 02:16:09;;;;;;;4.40;2.65;;;;;;;12.99;100.00;95548.38;1035893;28;20507;-49
2021/07/06 02:16:41;;;;;;;5.45;2.72;;;;;;;12.96;100.00;95548.63;1036064;28;20032;-50
2021/07/06 02:17:12;;;;;;;5.07;3.25;;;;;;;12.97;100.00;95547.69;1035951;28;20028;-50
2021/07/06 02:17:43;;;;;;;4.43;2.95;;;;;;;13.00;100.00;95549.19;1036042;28;20046;-49
2021/07/06 02:18:22;;;;;;;4.97;2.83;;;;;;;13.01;100.00;95550.88;1035984;28;20081;-51
2021/07/06 02:18:53;;;;;;;4.07;2.75;;;;;;;13.02;100.00;95549.91;1036087;28;20018;-50
2021/07/06 02:19:24;;;;;;;4.97;2.80;;;;;;;13.01;100.00;95550.88;1035827;28;20018;-49
2021/07/06 02:19:55;;;;;;;6.13;3.00;;;;;;;12.99;100.00;95550.19;1036088;28;20026;-50
2021/07/06 02:20:25;;;;;;;10.30;2.85;;;;;;;13.00;100.00;95551.81;1035900;28;20026;-50
2021/07/06 02:20:57;;;;;;;4.72;2.90;;;;;;;12.99;100.00;95550.19;1035995;28;20049;-49
2021/07/06 02:21:29;;;;;;;4.47;2.60;;;;;;;12.96;100.00;95548.63;1035895;28;20021;-50
2021/07/06 02:21:59;;;;;;;7.38;2.85;;;;;;;12.96;100.00;95553.88;1036025;28;20022;-50
2021/07/06 02:22:30;;;;;;;5.72;3.30;;;;;;;12.96;100.00;95553.06;1035798;28;20482;-50
2021/07/06 02:23:06;;;;;;;8.00;3.17;;;;;;;12.93;100.00;95559.44;1035947;28;20111;-51
2021/07/06 02:23:37;;;;;;;4.85;2.67;;;;;;;12.94;100.00;95555.00;1035349;28;20432;-50
2021/07/06 02:24:08;;;;;;;5.90;3.05;;;;;;;12.92;100.00;95549.84;1035983;28;20013;-50
2021/07/06 02:24:38;;;;;;;5.05;2.83;;;;;;;12.90;100.00;95548.34;1035860;28;20026;-50
2021/07/06 02:25:10;;;;;;;4.63;2.70;;;;;;;12.92;100.00;95557.75;1035884;28;20025;-48
2021/07/06 02:25:42;;;;;;;6.47;2.80;;;;;;;12.91;100.00;95550.81;1035980;28;20033;-51
2021/07/06 02:26:12;;;;;;;5.93;2.78;;;;;;;12.93;100.00;95551.53;1036062;28;20022;-50